createdAt,value
2022-11-09T00:00:35.403Z,12.93
2022-11-09T00:05:37.339Z,12.18
2022-11-09T00:10:38.952Z,13.85
2022-11-09T00:15:40.478Z,13.82
2022-11-09T00:20:47.341Z,11.77
2022-11-09T00:25:49.744Z,11.63
2022-11-09T00:30:51.250Z,12.55
2022-11-09T00:35:52.807Z,13.90
2022-11-09T00:40:54.292Z,13.43
2022-11-09T00:45:55.909Z,12.85
2022-11-09T00:50:57.963Z,13.07
2022-11-09T00:56:11.275Z,12.63
2022-11-09T01:01:17.280Z,12.18
2022-11-09T01:06:21.420Z,12.88
2022-11-09T01:11:23.408Z,14.35
2022-11-09T01:16:27.263Z,12.90
2022-11-09T01:21:28.869Z,14.20
2022-11-09T01:26:30.842Z,14.27
2022-11-09T01:31:32.343Z,14.68
2022-11-09T01:36:36.695Z,15.05
2022-11-09T01:41:38.196Z,12.73
2022-11-09T01:46:44.347Z,14.07
2022-11-09T01:51:53.903Z,13.82
2022-11-09T01:56:58.815Z,14.68
2022-11-09T02:02:01.285Z,13.25
2022-11-09T02:07:03.330Z,13.63
2022-11-09T02:12:06.563Z,13.20
2022-11-09T02:17:09.086Z,14.18
2022-11-09T02:22:10.617Z,14.38
2022-11-09T02:27:12.163Z,12.45
2022-11-09T02:32:18.988Z,14.40
2022-11-09T02:37:29.607Z,13.38
2022-11-09T02:42:31.656Z,14.57
2022-11-09T02:47:33.206Z,14.98
2022-11-09T02:52:34.797Z,15.32
2022-11-09T02:57:36.938Z,16.60
2022-11-09T03:02:39.571Z,14.85
2022-11-09T03:07:41.133Z,13.70
2022-11-09T03:12:42.893Z,15.65
2022-11-09T03:17:47.136Z,15.43
2022-11-09T03:22:49.326Z,14.23
2022-11-09T03:28:00.599Z,14.45
2022-11-09T03:33:09.963Z,14.20
2022-11-09T03:38:13.421Z,13.85
2022-11-09T03:43:15.136Z,13.95
2022-11-09T03:48:16.781Z,12.95
2022-11-09T03:53:19.553Z,14.10
2022-11-09T03:58:21.454Z,13.57
2022-11-09T04:03:23.113Z,12.50
2022-11-09T04:08:24.908Z,12.02
2022-11-09T04:13:26.433Z,12.60
2022-11-09T04:18:27.944Z,13.10
2022-11-09T04:23:29.432Z,13.57
2022-11-09T04:28:30.934Z,14.30
2022-11-09T04:33:32.496Z,11.73
2022-11-09T04:38:34.090Z,16.23
2022-11-09T04:43:35.729Z,12.75
2022-11-09T04:48:37.318Z,13.55
2022-11-09T04:53:39.198Z,13.63
2022-11-09T04:58:40.795Z,14.20
2022-11-09T05:03:42.699Z,14.18
2022-11-09T05:08:44.278Z,15.68
2022-11-09T05:13:45.832Z,12.05
2022-11-09T05:18:47.703Z,12.88
2022-11-09T05:24:01.392Z,15.45
2022-11-09T05:29:05.630Z,12.85
2022-11-09T05:34:12.385Z,13.50
2022-11-09T05:39:13.887Z,14.40
2022-11-09T05:44:15.789Z,13.75
2022-11-09T05:49:17.313Z,11.65
2022-11-09T05:54:18.994Z,11.63
2022-11-09T05:59:20.489Z,10.93
2022-11-09T06:04:22.030Z,12.55
2022-11-09T06:09:23.542Z,13.32
2022-11-09T06:14:25.221Z,13.45
2022-11-09T06:19:26.702Z,12.50
2022-11-09T06:24:28.501Z,14.55
2022-11-09T06:29:30.030Z,12.75
2022-11-09T06:34:31.504Z,11.70
2022-11-09T06:39:33.058Z,12.00
2022-11-09T06:44:34.586Z,11.43
2022-11-09T06:49:36.176Z,11.57
2022-11-09T06:54:37.665Z,13.48
2022-11-09T06:59:39.159Z,12.05
2022-11-09T07:04:41.452Z,11.82
2022-11-09T07:09:43.009Z,11.95
2022-11-09T07:14:44.504Z,11.95
2022-11-09T07:19:46.394Z,11.38
2022-11-09T07:24:47.873Z,12.63
2022-11-09T07:29:49.376Z,11.35
2022-11-09T07:34:50.946Z,10.77
2022-11-09T07:39:52.450Z,10.55
2022-11-09T07:44:54.052Z,11.10
2022-11-09T07:49:55.543Z,11.85
2022-11-09T07:54:57.068Z,10.77
2022-11-09T07:59:59.167Z,11.50
2022-11-09T08:05:00.652Z,17.92
2022-11-09T08:10:02.228Z,12.38
2022-11-09T08:15:04.949Z,12.52
2022-11-09T08:20:07.023Z,12.35
2022-11-09T08:25:09.014Z,13.00
2022-11-09T08:30:13.964Z,11.98
2022-11-09T08:35:18.053Z,12.60
2022-11-09T08:40:24.610Z,12.15
2022-11-09T08:45:26.165Z,10.80
2022-11-09T08:50:28.825Z,11.57
2022-11-09T08:55:31.211Z,11.38
2022-11-09T09:00:32.815Z,11.90
2022-11-09T09:05:35.283Z,11.23
2022-11-09T09:10:36.826Z,10.68
2022-11-09T09:15:38.328Z,10.73
2022-11-09T09:20:39.878Z,11.38
2022-11-09T09:25:41.394Z,11.45
2022-11-09T09:30:42.900Z,11.18
2022-11-09T09:35:44.418Z,11.35
2022-11-09T09:41:00.204Z,10.23
2022-11-09T09:46:02.508Z,10.50
2022-11-09T09:51:11.478Z,11.13
2022-11-09T09:56:22.032Z,9.38
2022-11-09T10:01:38.666Z,9.38
2022-11-09T10:06:59.151Z,9.23
2022-11-09T10:12:12.842Z,8.88
2022-11-09T10:17:22.951Z,9.45
2022-11-09T10:22:41.363Z,10.45
2022-11-09T10:27:49.561Z,8.25
2022-11-09T10:32:54.827Z,7.78
2022-11-09T10:37:56.359Z,7.40
2022-11-09T10:43:00.119Z,7.72
2022-11-09T10:48:31.008Z,9.70
2022-11-09T10:54:15.143Z,8.48
2022-11-09T10:59:45.712Z,8.80
2022-11-09T11:05:05.616Z,9.27
2022-11-09T11:10:25.910Z,9.40
2022-11-09T11:15:46.079Z,8.57
2022-11-09T11:21:19.100Z,12.40
2022-11-09T11:26:45.943Z,8.90
2022-11-09T11:32:15.084Z,9.70
2022-11-09T11:38:01.166Z,9.18
2022-11-09T11:43:27.330Z,9.32
2022-11-09T11:48:57.257Z,9.85
2022-11-09T11:54:43.472Z,9.38
2022-11-09T12:00:15.267Z,9.10
2022-11-09T12:05:53.934Z,9.32
2022-11-09T12:11:35.554Z,8.35
2022-11-09T12:17:11.793Z,8.75
2022-11-09T12:22:50.173Z,8.70
2022-11-09T12:28:34.586Z,8.48
2022-11-09T12:34:06.592Z,10.10
2022-11-09T12:39:55.016Z,8.38
2022-11-09T12:45:27.512Z,9.30
2022-11-09T12:50:48.073Z,9.57
2022-11-09T12:56:11.091Z,10.30
2022-11-09T13:01:34.191Z,10.43
2022-11-09T13:07:03.821Z,10.05
2022-11-09T13:12:33.014Z,12.00
2022-11-09T13:18:19.893Z,10.40
2022-11-09T13:29:29.931Z,10.88
2022-11-09T13:34:55.637Z,11.63
2022-11-09T13:40:39.525Z,10.80
2022-11-09T13:46:05.041Z,10.98
2022-11-09T13:51:46.186Z,11.25
2022-11-09T13:57:07.136Z,11.57
2022-11-09T14:02:27.176Z,12.07
2022-11-09T14:07:47.206Z,11.38
2022-11-09T14:13:26.039Z,12.32
2022-11-09T14:19:11.916Z,11.95
2022-11-09T14:24:35.383Z,13.38
2022-11-09T14:29:57.099Z,13.00
2022-11-09T14:35:21.285Z,13.32
2022-11-09T14:40:45.795Z,13.40
2022-11-09T14:46:07.502Z,13.07
2022-11-09T14:51:33.962Z,13.88
2022-11-09T14:56:55.112Z,14.13
2022-11-09T15:02:17.887Z,16.80
2022-11-09T15:07:37.844Z,15.93
2022-11-09T15:13:00.505Z,15.65
2022-11-09T15:18:28.938Z,15.75
2022-11-09T15:24:14.310Z,14.68
2022-11-09T15:29:39.456Z,15.50
2022-11-09T15:34:59.700Z,15.13
2022-11-09T15:40:23.163Z,15.77
2022-11-09T15:45:43.170Z,16.23
2022-11-09T15:51:03.023Z,16.23
2022-11-09T15:56:24.434Z,16.95
2022-11-09T16:01:44.717Z,16.55
2022-11-09T16:07:05.494Z,17.83
2022-11-09T16:12:25.845Z,17.88
2022-11-09T16:17:45.883Z,17.00
2022-11-09T16:23:06.286Z,15.48
2022-11-09T16:28:26.497Z,14.70
2022-11-09T16:33:46.720Z,14.98
2022-11-09T16:39:09.361Z,14.93
2022-11-09T16:44:34.081Z,15.43
2022-11-09T16:49:54.463Z,15.60
2022-11-09T16:55:14.904Z,14.80
2022-11-09T17:01:03.712Z,14.75
2022-11-09T17:06:15.265Z,13.65
2022-11-09T17:11:36.073Z,13.40
2022-11-09T17:16:58.860Z,13.65
2022-11-09T17:22:19.082Z,13.60
2022-11-09T17:27:39.626Z,14.88
2022-11-09T17:32:59.916Z,12.77
2022-11-09T17:38:20.267Z,12.38
2022-11-09T17:43:42.390Z,12.65
2022-11-09T17:49:08.565Z,12.45
2022-11-09T17:54:35.533Z,11.90
2022-11-09T17:59:57.398Z,10.85
2022-11-09T18:05:17.275Z,12.68
2022-11-09T18:10:38.980Z,11.25
2022-11-09T18:16:01.157Z,11.02
2022-11-09T18:21:23.359Z,12.48
2022-11-09T18:26:43.591Z,11.57
2022-11-09T18:32:05.181Z,11.20
2022-11-09T18:37:25.434Z,10.35
2022-11-09T18:42:45.629Z,11.82
2022-11-09T18:48:06.106Z,12.13
2022-11-09T18:53:28.546Z,10.02
2022-11-09T18:58:53.023Z,10.98
2022-11-09T19:04:17.269Z,10.38
2022-11-09T19:09:38.930Z,10.25
2022-11-09T19:14:58.958Z,14.88
2022-11-09T19:20:20.719Z,11.27
2022-11-09T19:25:40.757Z,10.73
2022-11-09T19:31:00.872Z,12.45
2022-11-09T19:36:30.287Z,10.95
2022-11-09T19:41:51.414Z,14.65
2022-11-09T19:47:11.839Z,11.75
2022-11-09T19:52:32.177Z,11.20
2022-11-09T19:57:52.344Z,11.52
2022-11-09T20:03:12.613Z,10.90
2022-11-09T20:08:33.881Z,11.95
2022-11-09T20:13:53.952Z,12.18
2022-11-09T20:19:14.762Z,12.27
2022-11-09T20:24:35.009Z,12.52
2022-11-09T20:29:55.243Z,12.52
2022-11-09T20:35:15.806Z,11.98
2022-11-09T20:40:36.201Z,11.70
2022-11-09T20:45:57.211Z,12.05
2022-11-09T20:51:18.984Z,12.38
2022-11-09T20:56:39.297Z,13.80
2022-11-09T21:01:59.757Z,12.20
2022-11-09T21:07:19.992Z,11.43
2022-11-09T21:12:40.284Z,12.25
2022-11-09T21:18:00.354Z,12.68
2022-11-09T21:23:20.725Z,12.43
2022-11-09T21:28:59.356Z,12.50
2022-11-09T21:34:19.613Z,12.27
2022-11-09T21:39:39.709Z,12.40
2022-11-09T21:44:59.941Z,12.65
2022-11-09T21:50:20.398Z,14.52
2022-11-09T21:55:40.481Z,13.13
2022-11-09T22:01:05.429Z,13.15
2022-11-09T22:06:27.618Z,14.25
2022-11-09T22:12:05.833Z,13.68
2022-11-09T22:17:25.935Z,14.80
2022-11-09T22:22:46.707Z,13.63
2022-11-09T22:28:07.114Z,13.85
2022-11-09T22:33:29.231Z,13.55
2022-11-09T22:38:50.332Z,12.73
2022-11-09T22:44:10.525Z,12.98
2022-11-09T22:49:30.864Z,14.32
2022-11-09T22:54:51.111Z,11.18
2022-11-09T23:00:14.307Z,11.93
2022-11-09T23:05:34.504Z,11.57
2022-11-09T23:10:55.546Z,12.27
2022-11-09T23:16:15.810Z,13.15
2022-11-09T23:21:37.181Z,11.20
2022-11-09T23:26:57.075Z,12.05
2022-11-09T23:32:17.048Z,12.32
2022-11-09T23:37:37.453Z,10.55
2022-11-09T23:43:05.630Z,10.05
2022-11-09T23:48:25.622Z,9.38
2022-11-09T23:53:45.760Z,10.43
2022-11-09T23:59:05.886Z,9.35
